sensor_id;sensor_type;location;lat;lon;timestamp;P1;durP1;ratioP1;P2;durP2;ratioP2
31004;SDS011;17676;52.254;4.490;2023-06-04T00:00:11;0.75;;;0.45;;
31004;SDS011;17676;52.254;4.490;2023-06-04T00:02:37;2.30;;;0.40;;
31004;SDS011;17676;52.254;4.490;2023-06-04T00:05:02;0.77;;;0.40;;
31004;SDS011;17676;52.254;4.490;2023-06-04T00:07:28;1.42;;;0.50;;
31004;SDS011;17676;52.254;4.490;2023-06-04T00:09:53;1.50;;;0.40;;
31004;SDS011;17676;52.254;4.490;2023-06-04T00:12:19;1.67;;;0.75;;
31004;SDS011;17676;52.254;4.490;2023-06-04T00:14:44;2.78;;;0.63;;
31004;SDS011;17676;52.254;4.490;2023-06-04T00:17:10;2.47;;;0.60;;
31004;SDS011;17676;52.254;4.490;2023-06-04T00:19:37;1.65;;;0.40;;
31004;SDS011;17676;52.254;4.490;2023-06-04T00:22:03;2.03;;;0.45;;
31004;SDS011;17676;52.254;4.490;2023-06-04T00:24:31;3.92;;;0.80;;
31004;SDS011;17676;52.254;4.490;2023-06-04T00:26:56;1.52;;;0.52;;
31004;SDS011;17676;52.254;4.490;2023-06-04T00:29:23;3.33;;;0.63;;
31004;SDS011;17676;52.254;4.490;2023-06-04T00:31:48;1.80;;;0.60;;
31004;SDS011;17676;52.254;4.490;2023-06-04T00:34:13;1.30;;;0.57;;
31004;SDS011;17676;52.254;4.490;2023-06-04T00:36:39;0.82;;;0.60;;
31004;SDS011;17676;52.254;4.490;2023-06-04T00:39:05;1.77;;;0.55;;
31004;SDS011;17676;52.254;4.490;2023-06-04T00:41:31;1.25;;;0.50;;
31004;SDS011;17676;52.254;4.490;2023-06-04T00:43:56;1.65;;;0.40;;
31004;SDS011;17676;52.254;4.490;2023-06-04T00:46:25;2.53;;;0.70;;
31004;SDS011;17676;52.254;4.490;2023-06-04T00:48:51;1.80;;;0.50;;
31004;SDS011;17676;52.254;4.490;2023-06-04T00:51:18;2.05;;;0.60;;
31004;SDS011;17676;52.254;4.490;2023-06-04T00:53:45;1.33;;;0.40;;
31004;SDS011;17676;52.254;4.490;2023-06-04T00:56:11;2.58;;;0.88;;
31004;SDS011;17676;52.254;4.490;2023-06-04T00:58:37;2.53;;;0.70;;
31004;SDS011;17676;52.254;4.490;2023-06-04T01:01:09;1.52;;;0.50;;
31004;SDS011;17676;52.254;4.490;2023-06-04T01:03:41;4.38;;;0.50;;
31004;SDS011;17676;52.254;4.490;2023-06-04T01:06:13;0.93;;;0.68;;
31004;SDS011;17676;52.254;4.490;2023-06-04T01:08:50;2.33;;;0.80;;
31004;SDS011;17676;52.254;4.490;2023-06-04T01:11:29;2.35;;;0.70;;
31004;SDS011;17676;52.254;4.490;2023-06-04T01:13:59;1.98;;;0.50;;
31004;SDS011;17676;52.254;4.490;2023-06-04T01:16:25;5.25;;;0.60;;
31004;SDS011;17676;52.254;4.490;2023-06-04T01:18:54;2.85;;;0.60;;
31004;SDS011;17676;52.254;4.490;2023-06-04T01:21:24;3.60;;;0.50;;
31004;SDS011;17676;52.254;4.490;2023-06-04T01:23:51;1.83;;;0.75;;
31004;SDS011;17676;52.254;4.490;2023-06-04T01:26:25;2.22;;;0.52;;
31004;SDS011;17676;52.254;4.490;2023-06-04T01:28:52;1.48;;;0.70;;
31004;SDS011;17676;52.254;4.490;2023-06-04T01:31:20;0.63;;;0.60;;
31004;SDS011;17676;52.254;4.490;2023-06-04T01:33:55;1.30;;;0.55;;
31004;SDS011;17676;52.254;4.490;2023-06-04T01:36:22;5.00;;;0.70;;
31004;SDS011;17676;52.254;4.490;2023-06-04T01:38:48;1.02;;;0.60;;
31004;SDS011;17676;52.254;4.490;2023-06-04T01:41:13;0.65;;;0.50;;
31004;SDS011;17676;52.254;4.490;2023-06-04T01:43:39;0.80;;;0.68;;
31004;SDS011;17676;52.254;4.490;2023-06-04T01:46:04;2.78;;;0.50;;
31004;SDS011;17676;52.254;4.490;2023-06-04T01:48:30;4.28;;;0.70;;
31004;SDS011;17676;52.254;4.490;2023-06-04T01:50:57;1.73;;;0.70;;
31004;SDS011;17676;52.254;4.490;2023-06-04T01:53:22;0.82;;;0.60;;
31004;SDS011;17676;52.254;4.490;2023-06-04T01:55:48;1.65;;;0.70;;
31004;SDS011;17676;52.254;4.490;2023-06-04T01:58:14;3.30;;;0.85;;
31004;SDS011;17676;52.254;4.490;2023-06-04T02:00:43;4.15;;;1.08;;
31004;SDS011;17676;52.254;4.490;2023-06-04T02:03:08;3.20;;;0.93;;
31004;SDS011;17676;52.254;4.490;2023-06-04T02:05:35;3.65;;;0.98;;
31004;SDS011;17676;52.254;4.490;2023-06-04T02:08:01;3.15;;;1.20;;
31004;SDS011;17676;52.254;4.490;2023-06-04T02:10:30;2.72;;;0.70;;
31004;SDS011;17676;52.254;4.490;2023-06-04T02:13:01;4.03;;;0.73;;
31004;SDS011;17676;52.254;4.490;2023-06-04T02:15:29;3.65;;;0.90;;
31004;SDS011;17676;52.254;4.490;2023-06-04T02:17:56;2.15;;;0.60;;
31004;SDS011;17676;52.254;4.490;2023-06-04T02:20:27;3.95;;;0.95;;
31004;SDS011;17676;52.254;4.490;2023-06-04T02:22:53;2.75;;;0.82;;
31004;SDS011;17676;52.254;4.490;2023-06-04T02:25:19;1.50;;;0.70;;
31004;SDS011;17676;52.254;4.490;2023-06-04T02:27:45;0.90;;;0.80;;
31004;SDS011;17676;52.254;4.490;2023-06-04T02:30:10;2.53;;;0.65;;
31004;SDS011;17676;52.254;4.490;2023-06-04T02:32:36;1.92;;;0.85;;
31004;SDS011;17676;52.254;4.490;2023-06-04T02:35:02;1.48;;;0.80;;
31004;SDS011;17676;52.254;4.490;2023-06-04T02:37:28;2.47;;;1.10;;
31004;SDS011;17676;52.254;4.490;2023-06-04T02:39:54;4.90;;;0.88;;
31004;SDS011;17676;52.254;4.490;2023-06-04T02:42:19;3.40;;;0.70;;
31004;SDS011;17676;52.254;4.490;2023-06-04T02:44:45;2.38;;;1.13;;
31004;SDS011;17676;52.254;4.490;2023-06-04T02:47:10;2.17;;;0.90;;
31004;SDS011;17676;52.254;4.490;2023-06-04T02:49:35;3.03;;;0.90;;
31004;SDS011;17676;52.254;4.490;2023-06-04T02:52:01;2.22;;;0.55;;
31004;SDS011;17676;52.254;4.490;2023-06-04T02:54:26;4.25;;;1.02;;
31004;SDS011;17676;52.254;4.490;2023-06-04T02:56:51;1.50;;;1.05;;
31004;SDS011;17676;52.254;4.490;2023-06-04T02:59:18;1.77;;;0.60;;
31004;SDS011;17676;52.254;4.490;2023-06-04T03:01:44;2.35;;;1.20;;
31004;SDS011;17676;52.254;4.490;2023-06-04T03:04:09;1.90;;;0.88;;
31004;SDS011;17676;52.254;4.490;2023-06-04T03:06:39;0.70;;;0.70;;
31004;SDS011;17676;52.254;4.490;2023-06-04T03:09:05;1.30;;;1.13;;
31004;SDS011;17676;52.254;4.490;2023-06-04T03:11:32;2.17;;;0.98;;
31004;SDS011;17676;52.254;4.490;2023-06-04T03:13:57;2.55;;;1.10;;
31004;SDS011;17676;52.254;4.490;2023-06-04T03:16:22;4.10;;;0.90;;
31004;SDS011;17676;52.254;4.490;2023-06-04T03:18:48;2.35;;;1.27;;
31004;SDS011;17676;52.254;4.490;2023-06-04T03:21:13;3.42;;;1.02;;
31004;SDS011;17676;52.254;4.490;2023-06-04T03:23:39;5.68;;;0.90;;
31004;SDS011;17676;52.254;4.490;2023-06-04T03:26:05;2.10;;;0.93;;
31004;SDS011;17676;52.254;4.490;2023-06-04T03:28:31;3.60;;;1.17;;
31004;SDS011;17676;52.254;4.490;2023-06-04T03:30:57;4.32;;;1.27;;
31004;SDS011;17676;52.254;4.490;2023-06-04T03:33:23;2.25;;;1.33;;
31004;SDS011;17676;52.254;4.490;2023-06-04T03:35:49;3.35;;;1.52;;
31004;SDS011;17676;52.254;4.490;2023-06-04T03:38:15;3.08;;;1.20;;
31004;SDS011;17676;52.254;4.490;2023-06-04T03:40:41;4.35;;;1.13;;
31004;SDS011;17676;52.254;4.490;2023-06-04T03:43:07;4.93;;;1.75;;
31004;SDS011;17676;52.254;4.490;2023-06-04T03:45:32;3.60;;;1.80;;
31004;SDS011;17676;52.254;4.490;2023-06-04T03:47:57;8.00;;;2.22;;
31004;SDS011;17676;52.254;4.490;2023-06-04T03:50:23;4.68;;;2.25;;
31004;SDS011;17676;52.254;4.490;2023-06-04T03:52:48;8.25;;;1.70;;
31004;SDS011;17676;52.254;4.490;2023-06-04T03:55:14;5.47;;;2.05;;
31004;SDS011;17676;52.254;4.490;2023-06-04T03:57:39;6.38;;;2.72;;
31004;SDS011;17676;52.254;4.490;2023-06-04T04:00:06;6.97;;;2.90;;
31004;SDS011;17676;52.254;4.490;2023-06-04T04:02:33;5.35;;;2.95;;
31004;SDS011;17676;52.254;4.490;2023-06-04T04:04:58;5.28;;;2.60;;
31004;SDS011;17676;52.254;4.490;2023-06-04T04:07:24;3.45;;;2.58;;
31004;SDS011;17676;52.254;4.490;2023-06-04T04:09:51;7.53;;;2.85;;
31004;SDS011;17676;52.254;4.490;2023-06-04T04:12:17;6.00;;;3.03;;
31004;SDS011;17676;52.254;4.490;2023-06-04T04:14:42;5.32;;;3.22;;
31004;SDS011;17676;52.254;4.490;2023-06-04T04:17:07;5.60;;;2.78;;
31004;SDS011;17676;52.254;4.490;2023-06-04T04:19:33;5.28;;;3.17;;
31004;SDS011;17676;52.254;4.490;2023-06-04T04:21:58;7.45;;;3.17;;
31004;SDS011;17676;52.254;4.490;2023-06-04T04:24:24;7.60;;;2.75;;
31004;SDS011;17676;52.254;4.490;2023-06-04T04:26:51;7.25;;;3.38;;
31004;SDS011;17676;52.254;4.490;2023-06-04T04:29:20;4.60;;;3.22;;
31004;SDS011;17676;52.254;4.490;2023-06-04T04:31:48;8.65;;;3.58;;
31004;SDS011;17676;52.254;4.490;2023-06-04T04:34:14;6.70;;;3.28;;
31004;SDS011;17676;52.254;4.490;2023-06-04T04:36:40;4.18;;;3.45;;
31004;SDS011;17676;52.254;4.490;2023-06-04T04:39:05;7.35;;;4.07;;
31004;SDS011;17676;52.254;4.490;2023-06-04T04:41:31;7.25;;;3.10;;
31004;SDS011;17676;52.254;4.490;2023-06-04T04:44:02;8.52;;;3.38;;
31004;SDS011;17676;52.254;4.490;2023-06-04T04:46:29;6.80;;;3.30;;
31004;SDS011;17676;52.254;4.490;2023-06-04T04:48:54;7.97;;;3.05;;
31004;SDS011;17676;52.254;4.490;2023-06-04T04:51:20;6.85;;;3.42;;
31004;SDS011;17676;52.254;4.490;2023-06-04T04:53:45;6.88;;;3.20;;
31004;SDS011;17676;52.254;4.490;2023-06-04T04:56:10;6.32;;;2.80;;
31004;SDS011;17676;52.254;4.490;2023-06-04T04:58:36;6.20;;;3.40;;
31004;SDS011;17676;52.254;4.490;2023-06-04T05:01:01;5.60;;;2.75;;
31004;SDS011;17676;52.254;4.490;2023-06-04T05:03:27;6.88;;;3.28;;
31004;SDS011;17676;52.254;4.490;2023-06-04T05:05:52;4.95;;;3.40;;
31004;SDS011;17676;52.254;4.490;2023-06-04T05:08:17;6.18;;;3.60;;
31004;SDS011;17676;52.254;4.490;2023-06-04T05:10:43;7.35;;;3.10;;
31004;SDS011;17676;52.254;4.490;2023-06-04T05:13:08;6.13;;;3.08;;
31004;SDS011;17676;52.254;4.490;2023-06-04T05:15:34;4.25;;;2.30;;
31004;SDS011;17676;52.254;4.490;2023-06-04T05:17:59;7.55;;;3.13;;
31004;SDS011;17676;52.254;4.490;2023-06-04T05:20:25;6.60;;;2.38;;
31004;SDS011;17676;52.254;4.490;2023-06-04T05:22:51;3.22;;;2.50;;
31004;SDS011;17676;52.254;4.490;2023-06-04T05:25:17;6.78;;;3.03;;
31004;SDS011;17676;52.254;4.490;2023-06-04T05:27:42;7.22;;;2.40;;
31004;SDS011;17676;52.254;4.490;2023-06-04T05:30:08;5.20;;;2.53;;
31004;SDS011;17676;52.254;4.490;2023-06-04T05:32:34;9.95;;;2.42;;
31004;SDS011;17676;52.254;4.490;2023-06-04T05:35:01;4.00;;;2.08;;
31004;SDS011;17676;52.254;4.490;2023-06-04T05:37:29;8.45;;;2.35;;
31004;SDS011;17676;52.254;4.490;2023-06-04T05:39:58;5.65;;;2.28;;
31004;SDS011;17676;52.254;4.490;2023-06-04T05:42:23;6.35;;;2.08;;
31004;SDS011;17676;52.254;4.490;2023-06-04T05:44:49;5.35;;;2.17;;
31004;SDS011;17676;52.254;4.490;2023-06-04T05:47:15;5.60;;;1.88;;
31004;SDS011;17676;52.254;4.490;2023-06-04T05:49:41;5.75;;;2.20;;
31004;SDS011;17676;52.254;4.490;2023-06-04T05:52:07;8.68;;;2.20;;
31004;SDS011;17676;52.254;4.490;2023-06-04T05:54:33;3.85;;;1.67;;
31004;SDS011;17676;52.254;4.490;2023-06-04T05:56:58;4.95;;;1.75;;
31004;SDS011;17676;52.254;4.490;2023-06-04T05:59:23;4.43;;;2.08;;
31004;SDS011;17676;52.254;4.490;2023-06-04T06:01:49;6.57;;;1.67;;
31004;SDS011;17676;52.254;4.490;2023-06-04T06:04:15;5.07;;;1.95;;
31004;SDS011;17676;52.254;4.490;2023-06-04T06:06:43;5.90;;;1.63;;
31004;SDS011;17676;52.254;4.490;2023-06-04T06:09:13;5.25;;;1.65;;
31004;SDS011;17676;52.254;4.490;2023-06-04T06:11:41;3.75;;;1.67;;
31004;SDS011;17676;52.254;4.490;2023-06-04T06:14:07;5.63;;;1.85;;
31004;SDS011;17676;52.254;4.490;2023-06-04T06:16:33;3.67;;;1.58;;
31004;SDS011;17676;52.254;4.490;2023-06-04T06:18:59;6.50;;;1.38;;
31004;SDS011;17676;52.254;4.490;2023-06-04T06:21:25;6.20;;;1.55;;
31004;SDS011;17676;52.254;4.490;2023-06-04T06:23:51;4.72;;;1.40;;
31004;SDS011;17676;52.254;4.490;2023-06-04T06:26:16;3.83;;;1.08;;
31004;SDS011;17676;52.254;4.490;2023-06-04T06:28:42;3.78;;;1.00;;
31004;SDS011;17676;52.254;4.490;2023-06-04T06:31:07;3.25;;;0.70;;
31004;SDS011;17676;52.254;4.490;2023-06-04T06:33:33;3.08;;;0.95;;
31004;SDS011;17676;52.254;4.490;2023-06-04T06:35:58;6.40;;;1.27;;
31004;SDS011;17676;52.254;4.490;2023-06-04T06:38:25;3.05;;;1.10;;
31004;SDS011;17676;52.254;4.490;2023-06-04T06:40:51;3.85;;;0.93;;
31004;SDS011;17676;52.254;4.490;2023-06-04T06:43:17;4.30;;;1.08;;
31004;SDS011;17676;52.254;4.490;2023-06-04T06:45:42;3.35;;;0.75;;
31004;SDS011;17676;52.254;4.490;2023-06-04T06:48:08;2.10;;;0.50;;
31004;SDS011;17676;52.254;4.490;2023-06-04T06:50:33;2.55;;;0.65;;
31004;SDS011;17676;52.254;4.490;2023-06-04T06:53:01;3.75;;;1.00;;
31004;SDS011;17676;52.254;4.490;2023-06-04T06:55:27;2.60;;;0.55;;
31004;SDS011;17676;52.254;4.490;2023-06-04T06:57:52;2.50;;;0.60;;
31004;SDS011;17676;52.254;4.490;2023-06-04T07:00:18;4.53;;;0.88;;
31004;SDS011;17676;52.254;4.490;2023-06-04T07:02:43;4.82;;;0.60;;
31004;SDS011;17676;52.254;4.490;2023-06-04T07:05:09;3.72;;;0.65;;
31004;SDS011;17676;52.254;4.490;2023-06-04T07:07:35;4.75;;;0.80;;
31004;SDS011;17676;52.254;4.490;2023-06-04T07:10:01;3.45;;;0.65;;
31004;SDS011;17676;52.254;4.490;2023-06-04T07:12:28;2.67;;;0.50;;
31004;SDS011;17676;52.254;4.490;2023-06-04T07:14:54;2.83;;;0.50;;
31004;SDS011;17676;52.254;4.490;2023-06-04T07:17:19;1.80;;;0.50;;
31004;SDS011;17676;52.254;4.490;2023-06-04T07:19:45;2.45;;;0.85;;
31004;SDS011;17676;52.254;4.490;2023-06-04T07:22:10;5.13;;;0.60;;
31004;SDS011;17676;52.254;4.490;2023-06-04T07:24:36;5.43;;;0.70;;
31004;SDS011;17676;52.254;4.490;2023-06-04T07:27:01;3.38;;;0.50;;
31004;SDS011;17676;52.254;4.490;2023-06-04T07:29:27;3.50;;;1.00;;
31004;SDS011;17676;52.254;4.490;2023-06-04T07:31:52;3.58;;;0.63;;
31004;SDS011;17676;52.254;4.490;2023-06-04T07:34:17;2.33;;;0.45;;
31004;SDS011;17676;52.254;4.490;2023-06-04T07:36:43;3.85;;;0.70;;
31004;SDS011;17676;52.254;4.490;2023-06-04T07:39:08;5.38;;;0.93;;
31004;SDS011;17676;52.254;4.490;2023-06-04T07:41:33;3.10;;;0.50;;
31004;SDS011;17676;52.254;4.490;2023-06-04T07:43:59;2.88;;;0.57;;
31004;SDS011;17676;52.254;4.490;2023-06-04T07:46:24;3.97;;;0.65;;
31004;SDS011;17676;52.254;4.490;2023-06-04T07:48:50;4.38;;;0.57;;
31004;SDS011;17676;52.254;4.490;2023-06-04T07:51:15;5.18;;;0.50;;
31004;SDS011;17676;52.254;4.490;2023-06-04T07:53:41;5.57;;;0.60;;
31004;SDS011;17676;52.254;4.490;2023-06-04T07:56:07;4.93;;;0.40;;
31004;SDS011;17676;52.254;4.490;2023-06-04T07:58:32;3.85;;;0.30;;
31004;SDS011;17676;52.254;4.490;2023-06-04T08:00:58;1.85;;;0.40;;
31004;SDS011;17676;52.254;4.490;2023-06-04T08:03:23;1.48;;;0.43;;
31004;SDS011;17676;52.254;4.490;2023-06-04T08:05:49;1.48;;;0.30;;
31004;SDS011;17676;52.254;4.490;2023-06-04T08:08:15;2.10;;;0.30;;
31004;SDS011;17676;52.254;4.490;2023-06-04T08:10:40;2.42;;;0.50;;
31004;SDS011;17676;52.254;4.490;2023-06-04T08:13:06;5.22;;;0.65;;
31004;SDS011;17676;52.254;4.490;2023-06-04T08:15:31;1.67;;;0.35;;
31004;SDS011;17676;52.254;4.490;2023-06-04T08:17:57;1.65;;;0.30;;
31004;SDS011;17676;52.254;4.490;2023-06-04T08:20:23;1.95;;;0.35;;
31004;SDS011;17676;52.254;4.490;2023-06-04T08:22:49;1.50;;;0.30;;
31004;SDS011;17676;52.254;4.490;2023-06-04T08:25:14;5.68;;;0.30;;
31004;SDS011;17676;52.254;4.490;2023-06-04T08:27:40;9.70;;;0.52;;
31004;SDS011;17676;52.254;4.490;2023-06-04T08:30:06;6.78;;;0.40;;
31004;SDS011;17676;52.254;4.490;2023-06-04T08:32:33;13.93;;;0.55;;
31004;SDS011;17676;52.254;4.490;2023-06-04T08:34:59;2.08;;;0.30;;
31004;SDS011;17676;52.254;4.490;2023-06-04T08:37:24;4.15;;;0.45;;
31004;SDS011;17676;52.254;4.490;2023-06-04T08:39:50;25.83;;;1.15;;
31004;SDS011;17676;52.254;4.490;2023-06-04T08:42:20;16.02;;;0.93;;
31004;SDS011;17676;52.254;4.490;2023-06-04T08:44:50;2.10;;;0.30;;
31004;SDS011;17676;52.254;4.490;2023-06-04T08:47:17;3.00;;;0.30;;
31004;SDS011;17676;52.254;4.490;2023-06-04T08:49:45;1.63;;;0.25;;
31004;SDS011;17676;52.254;4.490;2023-06-04T08:52:15;1.70;;;0.32;;
31004;SDS011;17676;52.254;4.490;2023-06-04T08:54:41;3.63;;;0.40;;
31004;SDS011;17676;52.254;4.490;2023-06-04T08:57:07;2.75;;;0.30;;
31004;SDS011;17676;52.254;4.490;2023-06-04T08:59:34;2.72;;;0.30;;
31004;SDS011;17676;52.254;4.490;2023-06-04T09:02:01;1.25;;;0.30;;
31004;SDS011;17676;52.254;4.490;2023-06-04T09:04:28;2.63;;;0.30;;
31004;SDS011;17676;52.254;4.490;2023-06-04T09:06:54;2.10;;;0.20;;
31004;SDS011;17676;52.254;4.490;2023-06-04T09:09:20;2.33;;;0.20;;
31004;SDS011;17676;52.254;4.490;2023-06-04T09:11:49;1.40;;;0.30;;
31004;SDS011;17676;52.254;4.490;2023-06-04T09:14:17;1.35;;;0.20;;
31004;SDS011;17676;52.254;4.490;2023-06-04T09:16:46;1.85;;;0.20;;
31004;SDS011;17676;52.254;4.490;2023-06-04T09:19:16;1.83;;;0.20;;
31004;SDS011;17676;52.254;4.490;2023-06-04T09:22:01;2.40;;;0.20;;
31004;SDS011;17676;52.254;4.490;2023-06-04T09:24:39;1.83;;;0.38;;
31004;SDS011;17676;52.254;4.490;2023-06-04T09:27:11;1.48;;;0.20;;
31004;SDS011;17676;52.254;4.490;2023-06-04T09:29:48;1.85;;;0.20;;
31004;SDS011;17676;52.254;4.490;2023-06-04T09:32:20;4.28;;;0.30;;
31004;SDS011;17676;52.254;4.490;2023-06-04T09:34:53;4.80;;;0.40;;
31004;SDS011;17676;52.254;4.490;2023-06-04T09:37:19;3.17;;;0.40;;
31004;SDS011;17676;52.254;4.490;2023-06-04T09:39:54;1.17;;;0.30;;
31004;SDS011;17676;52.254;4.490;2023-06-04T09:42:20;4.07;;;0.98;;
31004;SDS011;17676;52.254;4.490;2023-06-04T09:44:47;2.85;;;0.63;;
31004;SDS011;17676;52.254;4.490;2023-06-04T09:47:13;1.70;;;0.20;;
31004;SDS011;17676;52.254;4.490;2023-06-04T09:49:45;0.43;;;0.20;;
31004;SDS011;17676;52.254;4.490;2023-06-04T09:52:12;1.60;;;0.30;;
31004;SDS011;17676;52.254;4.490;2023-06-04T09:54:38;2.30;;;0.30;;
31004;SDS011;17676;52.254;4.490;2023-06-04T09:57:13;2.97;;;0.30;;
31004;SDS011;17676;52.254;4.490;2023-06-04T09:59:42;0.88;;;0.40;;
31004;SDS011;17676;52.254;4.490;2023-06-04T10:02:09;0.52;;;0.17;;
31004;SDS011;17676;52.254;4.490;2023-06-04T10:04:36;3.33;;;0.20;;
31004;SDS011;17676;52.254;4.490;2023-06-04T10:07:05;1.65;;;0.30;;
31004;SDS011;17676;52.254;4.490;2023-06-04T10:09:33;4.95;;;0.28;;
31004;SDS011;17676;52.254;4.490;2023-06-04T10:12:00;0.98;;;0.20;;
31004;SDS011;17676;52.254;4.490;2023-06-04T10:14:39;2.60;;;0.30;;
31004;SDS011;17676;52.254;4.490;2023-06-04T10:17:06;1.92;;;0.20;;
31004;SDS011;17676;52.254;4.490;2023-06-04T10:19:34;2.25;;;0.20;;
31004;SDS011;17676;52.254;4.490;2023-06-04T10:22:02;1.38;;;0.10;;
31004;SDS011;17676;52.254;4.490;2023-06-04T10:24:28;1.85;;;0.20;;
31004;SDS011;17676;52.254;4.490;2023-06-04T10:26:54;1.45;;;0.30;;
31004;SDS011;17676;52.254;4.490;2023-06-04T10:29:22;1.17;;;0.20;;
31004;SDS011;17676;52.254;4.490;2023-06-04T10:31:48;1.33;;;0.20;;
31004;SDS011;17676;52.254;4.490;2023-06-04T10:34:19;2.70;;;0.25;;
31004;SDS011;17676;52.254;4.490;2023-06-04T10:36:47;2.22;;;0.20;;
31004;SDS011;17676;52.254;4.490;2023-06-04T10:39:13;1.58;;;0.30;;
31004;SDS011;17676;52.254;4.490;2023-06-04T10:41:38;2.78;;;0.20;;
31004;SDS011;17676;52.254;4.490;2023-06-04T10:44:04;1.08;;;0.20;;
31004;SDS011;17676;52.254;4.490;2023-06-04T10:46:39;1.38;;;0.20;;
31004;SDS011;17676;52.254;4.490;2023-06-04T10:49:06;1.40;;;0.20;;
31004;SDS011;17676;52.254;4.490;2023-06-04T10:51:33;5.20;;;0.38;;
31004;SDS011;17676;52.254;4.490;2023-06-04T10:54:00;3.55;;;0.20;;
31004;SDS011;17676;52.254;4.490;2023-06-04T10:58:53;2.85;;;0.20;;
31004;SDS011;17676;52.254;4.490;2023-06-04T11:01:28;3.13;;;0.20;;
31004;SDS011;17676;52.254;4.490;2023-06-04T11:03:56;4.22;;;0.30;;
31004;SDS011;17676;52.254;4.490;2023-06-04T11:06:22;0.95;;;0.30;;
31004;SDS011;17676;52.254;4.490;2023-06-04T11:09:14;3.10;;;0.20;;
31004;SDS011;17676;52.254;4.490;2023-06-04T11:11:43;2.58;;;0.35;;
31004;SDS011;17676;52.254;4.490;2023-06-04T11:14:09;2.42;;;0.25;;
31004;SDS011;17676;52.254;4.490;2023-06-04T11:16:36;1.40;;;0.20;;
31004;SDS011;17676;52.254;4.490;2023-06-04T11:19:02;5.68;;;0.40;;
31004;SDS011;17676;52.254;4.490;2023-06-04T11:21:28;9.32;;;0.60;;
31004;SDS011;17676;52.254;4.490;2023-06-04T11:24:00;3.67;;;0.55;;
31004;SDS011;17676;52.254;4.490;2023-06-04T11:26:32;2.47;;;0.32;;
31004;SDS011;17676;52.254;4.490;2023-06-04T11:28:58;2.05;;;0.40;;
31004;SDS011;17676;52.254;4.490;2023-06-04T11:31:24;5.40;;;0.40;;
31004;SDS011;17676;52.254;4.490;2023-06-04T11:33:50;3.75;;;0.40;;
31004;SDS011;17676;52.254;4.490;2023-06-04T11:36:22;5.28;;;0.38;;
31004;SDS011;17676;52.254;4.490;2023-06-04T11:41:26;7.63;;;0.60;;
31004;SDS011;17676;52.254;4.490;2023-06-04T11:43:52;3.63;;;0.50;;
31004;SDS011;17676;52.254;4.490;2023-06-04T11:46:18;2.30;;;0.30;;
31004;SDS011;17676;52.254;4.490;2023-06-04T11:48:45;5.45;;;0.40;;
31004;SDS011;17676;52.254;4.490;2023-06-04T11:51:17;4.22;;;0.60;;
31004;SDS011;17676;52.254;4.490;2023-06-04T11:53:42;4.78;;;0.50;;
31004;SDS011;17676;52.254;4.490;2023-06-04T11:56:08;4.82;;;0.57;;
31004;SDS011;17676;52.254;4.490;2023-06-04T11:58:34;6.43;;;0.65;;
31004;SDS011;17676;52.254;4.490;2023-06-04T12:01:00;12.30;;;0.60;;
31004;SDS011;17676;52.254;4.490;2023-06-04T12:03:59;11.35;;;0.60;;
31004;SDS011;17676;52.254;4.490;2023-06-04T12:06:18;19.20;;;0.93;;
31004;SDS011;17676;52.254;4.490;2023-06-04T12:14:14;5.28;;;0.40;;
31004;SDS011;17676;52.254;4.490;2023-06-04T12:17:01;6.07;;;0.47;;
31004;SDS011;17676;52.254;4.490;2023-06-04T12:19:44;7.68;;;0.70;;
31004;SDS011;17676;52.254;4.490;2023-06-04T12:22:22;4.55;;;0.50;;
31004;SDS011;17676;52.254;4.490;2023-06-04T12:24:49;4.50;;;0.50;;
31004;SDS011;17676;52.254;4.490;2023-06-04T12:27:22;6.88;;;0.40;;
31004;SDS011;17676;52.254;4.490;2023-06-04T12:30:01;5.72;;;0.57;;
31004;SDS011;17676;52.254;4.490;2023-06-04T12:32:29;4.97;;;0.68;;
31004;SDS011;17676;52.254;4.490;2023-06-04T12:34:58;6.13;;;0.60;;
31004;SDS011;17676;52.254;4.490;2023-06-04T12:37:31;7.35;;;0.32;;
31004;SDS011;17676;52.254;4.490;2023-06-04T12:39:56;3.80;;;0.40;;
31004;SDS011;17676;52.254;4.490;2023-06-04T12:42:22;8.38;;;0.80;;
31004;SDS011;17676;52.254;4.490;2023-06-04T12:45:00;2.05;;;0.40;;
31004;SDS011;17676;52.254;4.490;2023-06-04T12:47:26;8.07;;;0.68;;
31004;SDS011;17676;52.254;4.490;2023-06-04T12:49:51;3.60;;;0.40;;
31004;SDS011;17676;52.254;4.490;2023-06-04T12:52:17;9.40;;;0.50;;
31004;SDS011;17676;52.254;4.490;2023-06-04T12:54:47;9.57;;;0.60;;
31004;SDS011;17676;52.254;4.490;2023-06-04T12:57:12;3.67;;;0.60;;
31004;SDS011;17676;52.254;4.490;2023-06-04T12:59:44;3.67;;;0.40;;
31004;SDS011;17676;52.254;4.490;2023-06-04T13:02:17;12.48;;;1.15;;
31004;SDS011;17676;52.254;4.490;2023-06-04T13:04:43;6.30;;;0.50;;
31004;SDS011;17676;52.254;4.490;2023-06-04T13:07:14;7.40;;;0.55;;
31004;SDS011;17676;52.254;4.490;2023-06-04T13:09:42;8.13;;;0.50;;
31004;SDS011;17676;52.254;4.490;2023-06-04T13:12:08;7.45;;;0.55;;
31004;SDS011;17676;52.254;4.490;2023-06-04T13:14:34;12.07;;;0.65;;
31004;SDS011;17676;52.254;4.490;2023-06-04T13:17:00;7.35;;;0.73;;
31004;SDS011;17676;52.254;4.490;2023-06-04T13:19:27;4.50;;;0.77;;
31004;SDS011;17676;52.254;4.490;2023-06-04T13:21:57;7.88;;;0.70;;
31004;SDS011;17676;52.254;4.490;2023-06-04T13:24:26;5.78;;;0.82;;
31004;SDS011;17676;52.254;4.490;2023-06-04T13:26:51;6.57;;;0.70;;
31004;SDS011;17676;52.254;4.490;2023-06-04T13:29:20;6.57;;;0.40;;
31004;SDS011;17676;52.254;4.490;2023-06-04T13:31:54;7.43;;;0.60;;
31004;SDS011;17676;52.254;4.490;2023-06-04T13:34:21;4.07;;;0.57;;
31004;SDS011;17676;52.254;4.490;2023-06-04T13:36:46;8.88;;;0.82;;
31004;SDS011;17676;52.254;4.490;2023-06-04T13:39:11;4.53;;;0.57;;
31004;SDS011;17676;52.254;4.490;2023-06-04T13:41:46;4.15;;;0.60;;
31004;SDS011;17676;52.254;4.490;2023-06-04T13:44:11;7.90;;;0.75;;
31004;SDS011;17676;52.254;4.490;2023-06-04T13:46:40;6.82;;;0.70;;
31004;SDS011;17676;52.254;4.490;2023-06-04T13:49:06;6.72;;;0.68;;
31004;SDS011;17676;52.254;4.490;2023-06-04T13:51:41;6.68;;;0.55;;
31004;SDS011;17676;52.254;4.490;2023-06-04T13:54:06;6.53;;;1.25;;
31004;SDS011;17676;52.254;4.490;2023-06-04T13:56:35;4.82;;;1.92;;
31004;SDS011;17676;52.254;4.490;2023-06-04T13:59:04;8.52;;;1.63;;
31004;SDS011;17676;52.254;4.490;2023-06-04T14:01:32;11.85;;;1.45;;
31004;SDS011;17676;52.254;4.490;2023-06-04T14:03:58;10.35;;;0.73;;
31004;SDS011;17676;52.254;4.490;2023-06-04T14:06:26;8.32;;;0.70;;
31004;SDS011;17676;52.254;4.490;2023-06-04T14:08:51;6.32;;;1.05;;
31004;SDS011;17676;52.254;4.490;2023-06-04T14:11:17;5.15;;;0.68;;
31004;SDS011;17676;52.254;4.490;2023-06-04T14:13:46;10.07;;;0.95;;
31004;SDS011;17676;52.254;4.490;2023-06-04T14:16:11;3.28;;;0.50;;
31004;SDS011;17676;52.254;4.490;2023-06-04T14:18:37;8.18;;;0.88;;
31004;SDS011;17676;52.254;4.490;2023-06-04T14:21:02;7.03;;;0.90;;
31004;SDS011;17676;52.254;4.490;2023-06-04T14:23:31;3.85;;;0.80;;
31004;SDS011;17676;52.254;4.490;2023-06-04T14:25:57;3.40;;;0.75;;
31004;SDS011;17676;52.254;4.490;2023-06-04T14:28:26;6.82;;;0.90;;
31004;SDS011;17676;52.254;4.490;2023-06-04T14:30:55;4.55;;;0.60;;
31004;SDS011;17676;52.254;4.490;2023-06-04T14:33:21;5.03;;;1.00;;
31004;SDS011;17676;52.254;4.490;2023-06-04T14:35:49;6.28;;;0.70;;
31004;SDS011;17676;52.254;4.490;2023-06-04T14:38:16;6.03;;;0.90;;
31004;SDS011;17676;52.254;4.490;2023-06-04T14:40:44;4.82;;;0.55;;
31004;SDS011;17676;52.254;4.490;2023-06-04T14:43:13;9.70;;;1.20;;
31004;SDS011;17676;52.254;4.490;2023-06-04T14:45:42;9.52;;;1.05;;
31004;SDS011;17676;52.254;4.490;2023-06-04T14:48:07;7.97;;;0.68;;
31004;SDS011;17676;52.254;4.490;2023-06-04T14:50:34;5.97;;;0.95;;
31004;SDS011;17676;52.254;4.490;2023-06-04T14:52:59;7.78;;;0.60;;
31004;SDS011;17676;52.254;4.490;2023-06-04T14:55:28;5.95;;;0.70;;
31004;SDS011;17676;52.254;4.490;2023-06-04T14:57:53;7.13;;;0.90;;